Sturgis, Canada
Current Conditions -  °F | °C
As of 7:00 AM on Friday 31 Oct 2014 (Local Time) from CYQV Reporting Station
Clear Clear  
Wind Chill:   Ceiling: Unl
Heat Index: 21°   Visibility: 9mi
Dew Point: 18°   Wind: 13mph
Humidity: 86%   Direction: 150°SSE
Pressure: 30.34"   Gusts: 20mph
Location:  51.85°N, 102.53°W
Report Text: CYQV 311300Z AUTO 15011G17KT 9SM CLR M06/M08 A3034 RMK SLP310
Loading
Personal Weather Stations






























Interactive Weather Map
Tropical Storm Tracking
New forecast layout! Learn more

10-Day Weather Forecast

Advertisements
Track Severe Weather on mobile